sensor_id;sensor_type;location;lat;lon;timestamp;pressure;altitude;pressure_sealevel;temperature;humidity
17309;BME280;8772;42.804;23.426;2022-09-28T00:01:43;93668.72;;;11.74;100.00
17309;BME280;8772;42.804;23.426;2022-09-28T00:04:10;93662.59;;;11.64;100.00
17309;BME280;8772;42.804;23.426;2022-09-28T00:06:37;93669.56;;;11.62;100.00
17309;BME280;8772;42.804;23.426;2022-09-28T00:09:04;93655.00;;;11.63;100.00
17309;BME280;8772;42.804;23.426;2022-09-28T00:11:31;93669.25;;;11.60;100.00
17309;BME280;8772;42.804;23.426;2022-09-28T00:13:59;93670.94;;;11.66;100.00
17309;BME280;8772;42.804;23.426;2022-09-28T00:16:31;93690.44;;;11.67;100.00
17309;BME280;8772;42.804;23.426;2022-09-28T00:18:58;93679.44;;;11.74;100.00
17309;BME280;8772;42.804;23.426;2022-09-28T00:21:27;93692.44;;;11.84;100.00
17309;BME280;8772;42.804;23.426;2022-09-28T00:23:55;93686.28;;;11.75;100.00
17309;BME280;8772;42.804;23.426;2022-09-28T00:26:44;93688.78;;;11.69;100.00
17309;BME280;8772;42.804;23.426;2022-09-28T00:29:21;93673.47;;;11.70;100.00
17309;BME280;8772;42.804;23.426;2022-09-28T00:31:50;93667.41;;;11.78;100.00
17309;BME280;8772;42.804;23.426;2022-09-28T00:34:18;93663.84;;;11.81;100.00
17309;BME280;8772;42.804;23.426;2022-09-28T00:36:45;93666.09;;;11.83;100.00
17309;BME280;8772;42.804;23.426;2022-09-28T00:39:14;93659.31;;;11.60;100.00
17309;BME280;8772;42.804;23.426;2022-09-28T00:41:41;93660.94;;;11.58;100.00
17309;BME280;8772;42.804;23.426;2022-09-28T00:44:42;93661.72;;;11.46;100.00
17309;BME280;8772;42.804;23.426;2022-09-28T00:50:07;93656.69;;;11.48;100.00
17309;BME280;8772;42.804;23.426;2022-09-28T00:52:39;93659.47;;;11.44;100.00
17309;BME280;8772;42.804;23.426;2022-09-28T00:55:11;93655.72;;;11.33;100.00
17309;BME280;8772;42.804;23.426;2022-09-28T00:57:44;93657.06;;;11.37;100.00
17309;BME280;8772;42.804;23.426;2022-09-28T01:00:14;93655.72;;;11.33;100.00
17309;BME280;8772;42.804;23.426;2022-09-28T01:02:43;93661.66;;;11.28;100.00
17309;BME280;8772;42.804;23.426;2022-09-28T01:08:33;93653.47;;;11.31;100.00
17309;BME280;8772;42.804;23.426;2022-09-28T01:11:01;93655.09;;;11.29;100.00
17309;BME280;8772;42.804;23.426;2022-09-28T01:13:29;93653.44;;;11.22;100.00
17309;BME280;8772;42.804;23.426;2022-09-28T01:16:02;93651.47;;;11.23;100.00
17309;BME280;8772;42.804;23.426;2022-09-28T01:18:42;93649.28;;;11.30;100.00
17309;BME280;8772;42.804;23.426;2022-09-28T01:21:15;93653.84;;;11.21;100.00
17309;BME280;8772;42.804;23.426;2022-09-28T01:24:18;93656.34;;;11.15;100.00
17309;BME280;8772;42.804;23.426;2022-09-28T01:27:04;93655.22;;;11.25;100.00
17309;BME280;8772;42.804;23.426;2022-09-28T01:29:43;93664.47;;;11.33;100.00
17309;BME280;8772;42.804;23.426;2022-09-28T01:32:16;93663.16;;;11.38;100.00
17309;BME280;8772;42.804;23.426;2022-09-28T01:34:56;93650.59;;;11.47;100.00
17309;BME280;8772;42.804;23.426;2022-09-28T01:37:29;93655.50;;;11.49;100.00
17309;BME280;8772;42.804;23.426;2022-09-28T01:40:00;93655.13;;;11.38;100.00
17309;BME280;8772;42.804;23.426;2022-09-28T01:42:32;93647.50;;;11.27;100.00
17309;BME280;8772;42.804;23.426;2022-09-28T01:45:05;93653.03;;;11.33;100.00
17309;BME280;8772;42.804;23.426;2022-09-28T01:47:36;93654.94;;;11.32;100.00
17309;BME280;8772;42.804;23.426;2022-09-28T01:50:09;93661.25;;;11.38;100.00
17309;BME280;8772;42.804;23.426;2022-09-28T01:52:42;93669.41;;;11.35;100.00
17309;BME280;8772;42.804;23.426;2022-09-28T01:55:14;93670.63;;;11.43;100.00
17309;BME280;8772;42.804;23.426;2022-09-28T01:57:49;93681.97;;;11.47;100.00
17309;BME280;8772;42.804;23.426;2022-09-28T02:00:18;93680.78;;;11.48;100.00
17309;BME280;8772;42.804;23.426;2022-09-28T02:02:48;93685.56;;;11.53;100.00
17309;BME280;8772;42.804;23.426;2022-09-28T02:05:20;93684.06;;;11.52;100.00
17309;BME280;8772;42.804;23.426;2022-09-28T02:07:54;93696.28;;;11.53;100.00
17309;BME280;8772;42.804;23.426;2022-09-28T02:10:27;93692.09;;;11.52;100.00
17309;BME280;8772;42.804;23.426;2022-09-28T02:13:02;93694.75;;;11.52;100.00
17309;BME280;8772;42.804;23.426;2022-09-28T02:15:34;93695.94;;;11.51;100.00
17309;BME280;8772;42.804;23.426;2022-09-28T02:18:03;93686.69;;;11.43;100.00
17309;BME280;8772;42.804;23.426;2022-09-28T02:20:31;93677.06;;;11.24;100.00
17309;BME280;8772;42.804;23.426;2022-09-28T02:23:00;93680.00;;;11.17;100.00
17309;BME280;8772;42.804;23.426;2022-09-28T02:25:33;93674.38;;;11.24;100.00
17309;BME280;8772;42.804;23.426;2022-09-28T02:28:05;93671.41;;;11.22;100.00
17309;BME280;8772;42.804;23.426;2022-09-28T02:30:35;93671.41;;;11.22;100.00
17309;BME280;8772;42.804;23.426;2022-09-28T02:33:06;93682.09;;;11.22;100.00
17309;BME280;8772;42.804;23.426;2022-09-28T02:35:36;93687.44;;;11.22;100.00
17309;BME280;8772;42.804;23.426;2022-09-28T02:38:03;93699.97;;;11.25;100.00
17309;BME280;8772;42.804;23.426;2022-09-28T02:40:32;93702.63;;;11.25;100.00
17309;BME280;8772;42.804;23.426;2022-09-28T02:43:07;93712.09;;;11.17;100.00
17309;BME280;8772;42.804;23.426;2022-09-28T02:45:44;93693.31;;;11.08;100.00
17309;BME280;8772;42.804;23.426;2022-09-28T02:48:23;93692.31;;;10.93;100.00
17309;BME280;8772;42.804;23.426;2022-09-28T02:51:01;93689.81;;;10.98;100.00
17309;BME280;8772;42.804;23.426;2022-09-28T02:53:45;93690.16;;;10.88;100.00
17309;BME280;8772;42.804;23.426;2022-09-28T02:56:24;93689.78;;;10.77;100.00
17309;BME280;8772;42.804;23.426;2022-09-28T02:58:59;93686.69;;;10.79;100.00
17309;BME280;8772;42.804;23.426;2022-09-28T03:01:35;93690.97;;;10.76;100.00
17309;BME280;8772;42.804;23.426;2022-09-28T03:04:09;93695.13;;;10.77;100.00
17309;BME280;8772;42.804;23.426;2022-09-28T03:06:42;93698.13;;;10.79;100.00
17309;BME280;8772;42.804;23.426;2022-09-28T03:09:17;93702.00;;;10.78;100.00
17309;BME280;8772;42.804;23.426;2022-09-28T03:11:48;93707.75;;;10.77;100.00
17309;BME280;8772;42.804;23.426;2022-09-28T03:14:18;93713.78;;;10.68;100.00
17309;BME280;8772;42.804;23.426;2022-09-28T03:16:45;93716.53;;;10.77;100.00
17309;BME280;8772;42.804;23.426;2022-09-28T03:19:13;93711.94;;;10.78;100.00
17309;BME280;8772;42.804;23.426;2022-09-28T03:21:41;93709.56;;;10.80;100.00
17309;BME280;8772;42.804;23.426;2022-09-28T03:24:08;93703.81;;;10.81;100.00
17309;BME280;8772;42.804;23.426;2022-09-28T03:26:35;93705.19;;;10.86;100.00
17309;BME280;8772;42.804;23.426;2022-09-28T03:29:03;93707.09;;;10.85;100.00
17309;BME280;8772;42.804;23.426;2022-09-28T03:31:31;93730.44;;;10.85;100.00
17309;BME280;8772;42.804;23.426;2022-09-28T03:33:58;93726.13;;;10.87;100.00
17309;BME280;8772;42.804;23.426;2022-09-28T03:36:25;93717.78;;;10.85;100.00
17309;BME280;8772;42.804;23.426;2022-09-28T03:38:53;93723.75;;;10.89;100.00
17309;BME280;8772;42.804;23.426;2022-09-28T03:41:22;93729.44;;;10.91;100.00
17309;BME280;8772;42.804;23.426;2022-09-28T03:43:49;93725.78;;;10.97;100.00
17309;BME280;8772;42.804;23.426;2022-09-28T03:46:16;93728.00;;;10.99;100.00
17309;BME280;8772;42.804;23.426;2022-09-28T03:48:44;93716.44;;;11.02;100.00
17309;BME280;8772;42.804;23.426;2022-09-28T03:51:11;93718.25;;;11.05;100.00
17309;BME280;8772;42.804;23.426;2022-09-28T03:53:39;93726.09;;;10.99;100.00
17309;BME280;8772;42.804;23.426;2022-09-28T03:56:08;93730.13;;;11.04;100.00
17309;BME280;8772;42.804;23.426;2022-09-28T03:58:36;93727.50;;;11.13;100.00
17309;BME280;8772;42.804;23.426;2022-09-28T04:01:05;93736.72;;;11.12;100.00
17309;BME280;8772;42.804;23.426;2022-09-28T04:03:32;93732.44;;;11.14;100.00
17309;BME280;8772;42.804;23.426;2022-09-28T04:06:00;93732.63;;;11.20;100.00
17309;BME280;8772;42.804;23.426;2022-09-28T04:08:27;93731.03;;;11.22;100.00
17309;BME280;8772;42.804;23.426;2022-09-28T04:10:55;93735.03;;;11.27;100.00
17309;BME280;8772;42.804;23.426;2022-09-28T04:13:23;93734.75;;;11.25;100.00
17309;BME280;8772;42.804;23.426;2022-09-28T04:15:54;93741.47;;;11.29;100.00
17309;BME280;8772;42.804;23.426;2022-09-28T04:18:22;93736.00;;;11.33;100.00
17309;BME280;8772;42.804;23.426;2022-09-28T04:20:57;93726.34;;;11.35;100.00
17309;BME280;8772;42.804;23.426;2022-09-28T04:23:26;93737.38;;;11.37;100.00
17309;BME280;8772;42.804;23.426;2022-09-28T04:25:53;93735.44;;;11.38;100.00
17309;BME280;8772;42.804;23.426;2022-09-28T04:28:20;93729.53;;;11.43;100.00
17309;BME280;8772;42.804;23.426;2022-09-28T04:31:08;93730.13;;;11.47;100.00
17309;BME280;8772;42.804;23.426;2022-09-28T04:33:35;93735.81;;;11.49;100.00
17309;BME280;8772;42.804;23.426;2022-09-28T04:36:03;93728.41;;;11.53;100.00
17309;BME280;8772;42.804;23.426;2022-09-28T04:38:32;93732.03;;;11.59;100.00
17309;BME280;8772;42.804;23.426;2022-09-28T04:40:59;93733.81;;;11.62;100.00
17309;BME280;8772;42.804;23.426;2022-09-28T04:43:26;93731.78;;;11.66;100.00
17309;BME280;8772;42.804;23.426;2022-09-28T04:45:57;93720.94;;;11.69;100.00
17309;BME280;8772;42.804;23.426;2022-09-28T04:48:24;93730.03;;;11.72;100.00
17309;BME280;8772;42.804;23.426;2022-09-28T04:50:54;93725.28;;;11.76;100.00
17309;BME280;8772;42.804;23.426;2022-09-28T04:53:22;93731.56;;;11.82;100.00
17309;BME280;8772;42.804;23.426;2022-09-28T04:55:58;93727.13;;;11.88;100.00
17309;BME280;8772;42.804;23.426;2022-09-28T04:58:26;93728.06;;;11.94;100.00
17309;BME280;8772;42.804;23.426;2022-09-28T05:00:56;93725.38;;;11.94;100.00
17309;BME280;8772;42.804;23.426;2022-09-28T05:03:24;93723.13;;;11.92;100.00
17309;BME280;8772;42.804;23.426;2022-09-28T05:05:51;93722.75;;;12.03;100.00
17309;BME280;8772;42.804;23.426;2022-09-28T05:08:18;93720.22;;;12.08;100.00
17309;BME280;8772;42.804;23.426;2022-09-28T05:10:44;93719.19;;;12.15;100.00
17309;BME280;8772;42.804;23.426;2022-09-28T05:13:13;93714.47;;;12.19;100.00
17309;BME280;8772;42.804;23.426;2022-09-28T05:15:42;93717.47;;;12.30;100.00
17309;BME280;8772;42.804;23.426;2022-09-28T05:18:08;93717.19;;;12.37;100.00
17309;BME280;8772;42.804;23.426;2022-09-28T05:20:39;93704.41;;;12.41;100.00
17309;BME280;8772;42.804;23.426;2022-09-28T05:23:09;93715.13;;;12.50;100.00
17309;BME280;8772;42.804;23.426;2022-09-28T05:25:37;93726.03;;;12.55;100.00
17309;BME280;8772;42.804;23.426;2022-09-28T05:28:04;93722.19;;;12.65;100.00
17309;BME280;8772;42.804;23.426;2022-09-28T05:30:33;93731.88;;;12.72;100.00
17309;BME280;8772;42.804;23.426;2022-09-28T05:33:00;93727.44;;;12.78;100.00
17309;BME280;8772;42.804;23.426;2022-09-28T05:35:27;93729.50;;;12.83;100.00
17309;BME280;8772;42.804;23.426;2022-09-28T05:37:54;93736.22;;;12.87;100.00
17309;BME280;8772;42.804;23.426;2022-09-28T05:40:21;93727.56;;;12.92;100.00
17309;BME280;8772;42.804;23.426;2022-09-28T05:42:48;93731.34;;;12.95;100.00
17309;BME280;8772;42.804;23.426;2022-09-28T05:45:15;93730.13;;;12.96;100.00
17309;BME280;8772;42.804;23.426;2022-09-28T05:47:43;93740.59;;;13.03;100.00
17309;BME280;8772;42.804;23.426;2022-09-28T05:50:11;93746.25;;;13.05;100.00
17309;BME280;8772;42.804;23.426;2022-09-28T05:52:40;93759.69;;;13.05;100.00
17309;BME280;8772;42.804;23.426;2022-09-28T05:55:08;93753.13;;;13.06;100.00
17309;BME280;8772;42.804;23.426;2022-09-28T05:57:35;93758.34;;;13.09;100.00
17309;BME280;8772;42.804;23.426;2022-09-28T06:00:03;93769.50;;;12.99;100.00
17309;BME280;8772;42.804;23.426;2022-09-28T06:02:32;93765.03;;;12.96;100.00
17309;BME280;8772;42.804;23.426;2022-09-28T06:05:00;93763.41;;;12.98;100.00
17309;BME280;8772;42.804;23.426;2022-09-28T06:07:27;93762.38;;;13.05;100.00
17309;BME280;8772;42.804;23.426;2022-09-28T06:09:54;93767.13;;;13.10;100.00
17309;BME280;8772;42.804;23.426;2022-09-28T06:12:21;93769.22;;;13.15;100.00
17309;BME280;8772;42.804;23.426;2022-09-28T06:14:48;93768.03;;;13.24;100.00
17309;BME280;8772;42.804;23.426;2022-09-28T06:17:15;93768.31;;;13.35;100.00
17309;BME280;8772;42.804;23.426;2022-09-28T06:19:42;93778.16;;;13.47;100.00
17309;BME280;8772;42.804;23.426;2022-09-28T06:22:10;93781.44;;;13.60;100.00
17309;BME280;8772;42.804;23.426;2022-09-28T06:24:37;93779.66;;;13.66;100.00
17309;BME280;8772;42.804;23.426;2022-09-28T06:27:04;93775.16;;;13.72;100.00
17309;BME280;8772;42.804;23.426;2022-09-28T06:29:30;93775.59;;;13.80;100.00
17309;BME280;8772;42.804;23.426;2022-09-28T06:31:57;93784.09;;;13.87;100.00
17309;BME280;8772;42.804;23.426;2022-09-28T06:34:24;93781.53;;;13.93;100.00
17309;BME280;8772;42.804;23.426;2022-09-28T06:36:51;93776.59;;;14.00;100.00
17309;BME280;8772;42.804;23.426;2022-09-28T06:39:19;93774.84;;;13.88;100.00
17309;BME280;8772;42.804;23.426;2022-09-28T06:41:46;93771.88;;;13.77;100.00
17309;BME280;8772;42.804;23.426;2022-09-28T06:44:13;93772.75;;;13.83;100.00
17309;BME280;8772;42.804;23.426;2022-09-28T06:50:02;93777.78;;;14.08;100.00
17309;BME280;8772;42.804;23.426;2022-09-28T06:52:28;93766.13;;;14.20;100.00
17309;BME280;8772;42.804;23.426;2022-09-28T06:54:57;93771.06;;;14.22;100.00
17309;BME280;8772;42.804;23.426;2022-09-28T06:57:24;93776.38;;;14.40;100.00
17309;BME280;8772;42.804;23.426;2022-09-28T06:59:50;93766.66;;;14.42;100.00
17309;BME280;8772;42.804;23.426;2022-09-28T07:02:17;93773.78;;;14.54;100.00
17309;BME280;8772;42.804;23.426;2022-09-28T07:04:44;93773.13;;;14.59;100.00
17309;BME280;8772;42.804;23.426;2022-09-28T07:07:11;93777.53;;;14.80;100.00
17309;BME280;8772;42.804;23.426;2022-09-28T07:09:38;93778.06;;;14.93;100.00
17309;BME280;8772;42.804;23.426;2022-09-28T07:12:07;93773.03;;;15.10;100.00
17309;BME280;8772;42.804;23.426;2022-09-28T07:14:37;93780.41;;;15.24;100.00
17309;BME280;8772;42.804;23.426;2022-09-28T07:17:05;93783.16;;;15.38;100.00
17309;BME280;8772;42.804;23.426;2022-09-28T07:19:32;93787.09;;;15.51;100.00
17309;BME280;8772;42.804;23.426;2022-09-28T07:22:01;93783.41;;;15.63;100.00
17309;BME280;8772;42.804;23.426;2022-09-28T07:24:27;93789.00;;;15.74;100.00
17309;BME280;8772;42.804;23.426;2022-09-28T07:26:55;93787.25;;;15.86;100.00
17309;BME280;8772;42.804;23.426;2022-09-28T07:29:23;93798.72;;;15.95;100.00
17309;BME280;8772;42.804;23.426;2022-09-28T07:31:52;93799.34;;;16.05;100.00
17309;BME280;8772;42.804;23.426;2022-09-28T07:34:19;93805.84;;;16.13;100.00
17309;BME280;8772;42.804;23.426;2022-09-28T07:36:47;93798.88;;;16.21;100.00
17309;BME280;8772;42.804;23.426;2022-09-28T07:39:16;93796.09;;;16.30;100.00
17309;BME280;8772;42.804;23.426;2022-09-28T07:41:43;93798.75;;;16.39;100.00
17309;BME280;8772;42.804;23.426;2022-09-28T07:44:08;93796.09;;;16.44;100.00
17309;BME280;8772;42.804;23.426;2022-09-28T07:46:37;93804.28;;;16.50;100.00
17309;BME280;8772;42.804;23.426;2022-09-28T07:49:03;93803.91;;;16.57;100.00
17309;BME280;8772;42.804;23.426;2022-09-28T07:51:31;93805.03;;;16.65;100.00
17309;BME280;8772;42.804;23.426;2022-09-28T07:53:58;93804.09;;;16.68;100.00
17309;BME280;8772;42.804;23.426;2022-09-28T07:56:25;93796.63;;;16.77;100.00
17309;BME280;8772;42.804;23.426;2022-09-28T07:58:52;93804.34;;;16.84;100.00
17309;BME280;8772;42.804;23.426;2022-09-28T08:01:19;93797.81;;;16.91;100.00
17309;BME280;8772;42.804;23.426;2022-09-28T08:03:47;93796.19;;;16.99;100.00
17309;BME280;8772;42.804;23.426;2022-09-28T08:06:15;93794.13;;;17.08;100.00
17309;BME280;8772;42.804;23.426;2022-09-28T08:08:43;93796.81;;;17.08;100.00
17309;BME280;8772;42.804;23.426;2022-09-28T08:11:10;93792.63;;;17.07;100.00
17309;BME280;8772;42.804;23.426;2022-09-28T08:13:37;93787.63;;;17.00;100.00
17309;BME280;8772;42.804;23.426;2022-09-28T08:16:05;93789.88;;;17.02;100.00
17309;BME280;8772;42.804;23.426;2022-09-28T08:18:34;93788.22;;;17.10;100.00
17309;BME280;8772;42.804;23.426;2022-09-28T08:21:03;93793.09;;;17.26;100.00
17309;BME280;8772;42.804;23.426;2022-09-28T08:23:49;93795.41;;;17.33;100.00
17309;BME280;8772;42.804;23.426;2022-09-28T08:26:16;93793.91;;;17.46;100.00
17309;BME280;8772;42.804;23.426;2022-09-28T08:28:43;93795.22;;;17.56;100.00
17309;BME280;8772;42.804;23.426;2022-09-28T08:31:12;93796.09;;;17.68;100.00
17309;BME280;8772;42.804;23.426;2022-09-28T08:33:39;93791.34;;;17.82;100.00
17309;BME280;8772;42.804;23.426;2022-09-28T08:36:08;93802.81;;;17.97;100.00
17309;BME280;8772;42.804;23.426;2022-09-28T08:38:35;93797.94;;;18.01;100.00
17309;BME280;8772;42.804;23.426;2022-09-28T08:41:08;93807.66;;;18.13;100.00
17309;BME280;8772;42.804;23.426;2022-09-28T08:43:55;93810.44;;;18.24;100.00
17309;BME280;8772;42.804;23.426;2022-09-28T08:46:29;93805.94;;;18.36;100.00
17309;BME280;8772;42.804;23.426;2022-09-28T08:49:00;93803.13;;;18.56;100.00
17309;BME280;8772;42.804;23.426;2022-09-28T08:51:34;93801.78;;;18.71;100.00
17309;BME280;8772;42.804;23.426;2022-09-28T08:54:06;93808.53;;;18.87;100.00
17309;BME280;8772;42.804;23.426;2022-09-28T08:56:40;93794.78;;;18.90;100.00
17309;BME280;8772;42.804;23.426;2022-09-28T08:59:12;93797.81;;;19.03;100.00
17309;BME280;8772;42.804;23.426;2022-09-28T09:01:45;93795.16;;;19.14;100.00
17309;BME280;8772;42.804;23.426;2022-09-28T09:04:13;93789.53;;;19.18;100.00
17309;BME280;8772;42.804;23.426;2022-09-28T09:07:01;93792.38;;;19.40;100.00
17309;BME280;8772;42.804;23.426;2022-09-28T09:09:45;93789.63;;;19.34;100.00
17309;BME280;8772;42.804;23.426;2022-09-28T09:12:21;93794.66;;;19.52;100.00
17309;BME280;8772;42.804;23.426;2022-09-28T09:15:06;93796.94;;;19.70;100.00
17309;BME280;8772;42.804;23.426;2022-09-28T09:17:48;93799.19;;;19.77;100.00
17309;BME280;8772;42.804;23.426;2022-09-28T09:20:29;93795.78;;;19.93;100.00
17309;BME280;8772;42.804;23.426;2022-09-28T09:23:11;93792.38;;;20.04;100.00
17309;BME280;8772;42.804;23.426;2022-09-28T09:25:48;93790.16;;;20.18;100.00
17309;BME280;8772;42.804;23.426;2022-09-28T09:28:36;93790.16;;;20.24;100.00
17309;BME280;8772;42.804;23.426;2022-09-28T09:31:15;93786.22;;;20.14;100.00
17309;BME280;8772;42.804;23.426;2022-09-28T09:34:05;93792.41;;;20.31;100.00
17309;BME280;8772;42.804;23.426;2022-09-28T09:36:44;93805.78;;;20.45;100.00
17309;BME280;8772;42.804;23.426;2022-09-28T09:39:28;93793.44;;;20.50;100.00
17309;BME280;8772;42.804;23.426;2022-09-28T09:42:15;93794.16;;;20.56;100.00
17309;BME280;8772;42.804;23.426;2022-09-28T09:45:15;93790.97;;;20.63;100.00
17309;BME280;8772;42.804;23.426;2022-09-28T09:47:47;93786.97;;;20.80;100.00
17309;BME280;8772;42.804;23.426;2022-09-28T09:50:22;93789.94;;;20.99;100.00
17309;BME280;8772;42.804;23.426;2022-09-28T09:52:57;93773.81;;;21.28;100.00
17309;BME280;8772;42.804;23.426;2022-09-28T09:55:29;93783.63;;;21.53;100.00
17309;BME280;8772;42.804;23.426;2022-09-28T09:58:03;93788.31;;;21.75;80.53
17309;BME280;8772;42.804;23.426;2022-09-28T10:00:32;93775.81;;;21.96;74.62
17309;BME280;8772;42.804;23.426;2022-09-28T10:02:59;93782.88;;;22.15;73.40
17309;BME280;8772;42.804;23.426;2022-09-28T10:05:29;93772.09;;;22.34;75.59
17309;BME280;8772;42.804;23.426;2022-09-28T10:07:59;93770.16;;;22.29;78.17
17309;BME280;8772;42.804;23.426;2022-09-28T10:10:32;93770.69;;;22.62;77.68
17309;BME280;8772;42.804;23.426;2022-09-28T10:13:00;93769.50;;;22.87;80.11
17309;BME280;8772;42.804;23.426;2022-09-28T10:15:28;93765.81;;;23.08;70.01
17309;BME280;8772;42.804;23.426;2022-09-28T10:17:58;93760.91;;;23.31;71.57
17309;BME280;8772;42.804;23.426;2022-09-28T10:20:28;93766.09;;;23.53;71.25
17309;BME280;8772;42.804;23.426;2022-09-28T10:22:59;93770.31;;;23.72;66.08
17309;BME280;8772;42.804;23.426;2022-09-28T10:25:32;93762.25;;;23.85;66.00
17309;BME280;8772;42.804;23.426;2022-09-28T10:28:00;93755.69;;;24.12;64.35
17309;BME280;8772;42.804;23.426;2022-09-28T10:30:33;93754.56;;;24.39;64.49
17309;BME280;8772;42.804;23.426;2022-09-28T10:33:26;93748.34;;;24.57;57.60
17309;BME280;8772;42.804;23.426;2022-09-28T10:35:54;93748.28;;;24.76;60.53
17309;BME280;8772;42.804;23.426;2022-09-28T10:38:22;93753.66;;;24.81;60.48
17309;BME280;8772;42.804;23.426;2022-09-28T10:40:51;93742.03;;;24.93;59.82
17309;BME280;8772;42.804;23.426;2022-09-28T10:43:22;93745.28;;;25.05;61.75
17309;BME280;8772;42.804;23.426;2022-09-28T10:45:59;93731.34;;;25.34;59.09
17309;BME280;8772;42.804;23.426;2022-09-28T10:48:28;93729.63;;;25.70;59.30
17309;BME280;8772;42.804;23.426;2022-09-28T10:50:59;93735.00;;;25.89;56.41
17309;BME280;8772;42.804;23.426;2022-09-28T10:53:28;93732.66;;;25.93;55.96
17309;BME280;8772;42.804;23.426;2022-09-28T10:55:58;93724.28;;;26.11;53.82
17309;BME280;8772;42.804;23.426;2022-09-28T10:58:28;93718.94;;;26.06;55.10
17309;BME280;8772;42.804;23.426;2022-09-28T11:01:01;93720.78;;;26.24;52.72
17309;BME280;8772;42.804;23.426;2022-09-28T11:03:29;93711.78;;;26.57;54.75
17309;BME280;8772;42.804;23.426;2022-09-28T11:05:59;93712.53;;;26.78;50.41
17309;BME280;8772;42.804;23.426;2022-09-28T11:08:30;93708.59;;;26.66;51.92
17309;BME280;8772;42.804;23.426;2022-09-28T11:11:07;93703.28;;;26.68;49.53
17309;BME280;8772;42.804;23.426;2022-09-28T11:13:40;93706.34;;;26.85;52.65
17309;BME280;8772;42.804;23.426;2022-09-28T11:16:21;93701.75;;;27.08;52.85
17309;BME280;8772;42.804;23.426;2022-09-28T11:18:48;93700.03;;;27.18;47.34
17309;BME280;8772;42.804;23.426;2022-09-28T11:21:17;93694.16;;;27.14;49.77
17309;BME280;8772;42.804;23.426;2022-09-28T11:24:03;93690.97;;;27.10;49.45
17309;BME280;8772;42.804;23.426;2022-09-28T11:26:37;93694.81;;;27.07;48.15
17309;BME280;8772;42.804;23.426;2022-09-28T11:29:05;93687.47;;;27.02;48.36
17309;BME280;8772;42.804;23.426;2022-09-28T11:31:33;93684.88;;;26.96;49.77
17309;BME280;8772;42.804;23.426;2022-09-28T11:34:04;93687.69;;;26.83;48.77
17309;BME280;8772;42.804;23.426;2022-09-28T11:36:55;93678.34;;;26.79;47.46
17309;BME280;8772;42.804;23.426;2022-09-28T11:39:32;93671.47;;;26.65;47.57
17309;BME280;8772;42.804;23.426;2022-09-28T11:42:11;93667.31;;;26.51;48.18
17309;BME280;8772;42.804;23.426;2022-09-28T11:44:44;93667.31;;;26.51;48.05
17309;BME280;8772;42.804;23.426;2022-09-28T11:50:20;93665.28;;;26.31;49.94
17309;BME280;8772;42.804;23.426;2022-09-28T11:52:55;93665.47;;;26.33;49.30
17309;BME280;8772;42.804;23.426;2022-09-28T11:55:26;93666.34;;;26.28;49.47
17309;BME280;8772;42.804;23.426;2022-09-28T11:58:03;93672.53;;;26.08;49.85
17309;BME280;8772;42.804;23.426;2022-09-28T12:00:36;93665.91;;;26.03;47.00
17309;BME280;8772;42.804;23.426;2022-09-28T12:03:07;93665.66;;;25.81;49.46
17309;BME280;8772;42.804;23.426;2022-09-28T12:05:40;93655.03;;;25.64;46.70
17309;BME280;8772;42.804;23.426;2022-09-28T12:08:14;93656.66;;;25.47;46.21
17309;BME280;8772;42.804;23.426;2022-09-28T12:10:46;93656.22;;;25.56;47.75
17309;BME280;8772;42.804;23.426;2022-09-28T12:13:22;93647.38;;;25.63;50.37
17309;BME280;8772;42.804;23.426;2022-09-28T12:15:54;93653.13;;;25.72;51.63
17309;BME280;8772;42.804;23.426;2022-09-28T12:18:27;93649.66;;;25.72;48.43
17309;BME280;8772;42.804;23.426;2022-09-28T12:21:09;93648.00;;;25.56;51.28
17309;BME280;8772;42.804;23.426;2022-09-28T12:23:45;93648.41;;;25.60;49.75
17309;BME280;8772;42.804;23.426;2022-09-28T12:26:24;93653.69;;;25.58;50.34
17309;BME280;8772;42.804;23.426;2022-09-28T12:28:57;93641.88;;;25.76;50.48
17309;BME280;8772;42.804;23.426;2022-09-28T12:31:29;93638.97;;;25.48;45.59
17309;BME280;8772;42.804;23.426;2022-09-28T12:33:57;93641.06;;;25.55;46.91
17309;BME280;8772;42.804;23.426;2022-09-28T12:36:32;93642.47;;;25.82;47.15
17309;BME280;8772;42.804;23.426;2022-09-28T12:39:23;93641.84;;;25.89;45.05
17309;BME280;8772;42.804;23.426;2022-09-28T12:42:04;93640.47;;;25.36;46.36
17309;BME280;8772;42.804;23.426;2022-09-28T12:44:59;93631.59;;;25.56;46.12
17309;BME280;8772;42.804;23.426;2022-09-28T12:47:44;93629.91;;;25.53;53.72
17309;BME280;8772;42.804;23.426;2022-09-28T12:50:24;93630.13;;;25.55;53.15
17309;BME280;8772;42.804;23.426;2022-09-28T12:53:06;93634.31;;;25.56;51.84
17309;BME280;8772;42.804;23.426;2022-09-28T12:55:51;93619.69;;;25.53;53.95
17309;BME280;8772;42.804;23.426;2022-09-28T12:58:31;93639.16;;;25.63;56.81
17309;BME280;8772;42.804;23.426;2022-09-28T13:01:17;93631.00;;;25.37;57.54
17309;BME280;8772;42.804;23.426;2022-09-28T13:04:01;93640.28;;;25.21;59.93
17309;BME280;8772;42.804;23.426;2022-09-28T13:06:39;93641.41;;;24.99;62.04
17309;BME280;8772;42.804;23.426;2022-09-28T13:09:19;93641.50;;;24.55;62.20
17309;BME280;8772;42.804;23.426;2022-09-28T13:12:04;93642.25;;;24.24;64.10
17309;BME280;8772;42.804;23.426;2022-09-28T13:14:59;93637.25;;;24.10;67.71
17309;BME280;8772;42.804;23.426;2022-09-28T13:17:45;93644.59;;;23.83;70.25
17309;BME280;8772;42.804;23.426;2022-09-28T13:20:26;93637.16;;;23.65;70.33
17309;BME280;8772;42.804;23.426;2022-09-28T13:23:03;93635.47;;;23.25;67.09
17309;BME280;8772;42.804;23.426;2022-09-28T13:25:35;93637.66;;;23.27;67.34
17309;BME280;8772;42.804;23.426;2022-09-28T13:28:05;93640.13;;;23.06;74.42
17309;BME280;8772;42.804;23.426;2022-09-28T13:30:34;93640.94;;;22.77;73.63